Latest Coastal Weather Observations for Mandurah

IDW60701

Issued at 11:13 pm WST Saturday 27 August 2016 (issued every 10 minutes, with the page automatically refreshed every 10 minutes)

About coastal observations | Map of coastal stations | Coastal observations for WA | Marine services | Other Formats
Station Details ID: 009977 Name: MANDURAH Lat: -32.52 Lon: 115.71 Height: 3.0 m
Data from the previous 72 hours. | See also: Recent months at Mandurah
Date/Time
WST
Temp
°C
Wind Pressure Rain since
9am
mm
Weather Cloud Vis
km
Sea
Height
m
Swell
Dir  Spd
kts
Gust
kts
hPa Trend Height
m
Period
s
Dir
27/11:00pm 12.7 SSW 13 20 1006.2 - 2.6 - - - - - - -
27/10:30pm 12.7 SSW 14 22 1006.1 - 2.6 - - - - - - -
27/10:00pm 12.6 SSW 12 22 1006.2 - 2.6 - - - - - - -
27/09:30pm 12.7 SSW 13 20 1006.2 - 2.6 - - - - - - -
27/09:00pm 12.9 SSW 13 19 1005.8 - 2.6 - - - - - - -
27/08:30pm 13.0 SSW 12 19 1005.4 - 2.6 - - - - - - -
27/08:03pm 13.0 SSW 15 25 1005.0 - 2.6 - - - - - - -
27/08:00pm 13.0 SSW 15 23 1005.0 - 2.6 - - - - - - -
27/07:30pm 13.1 SSW 16 25 1004.5 - 2.6 - - - - - - -
27/07:02pm 13.6 SW 15 29 1004.0 - 2.6 - - - - - - -
27/07:00pm 13.4 SW 14 24 1003.9 - 2.6 - - - - - - -
27/06:30pm 13.0 SW 12 17 1003.5 - 2.4 - - - - - - -
27/06:00pm 13.0 SW 15 32 1003.3 - 2.4 - - - - - - -
27/05:51pm 13.7 SW 16 32 1003.1 - 2.4 - - - - - - -
27/05:30pm 14.3 WSW 17 25 1002.8 - 2.4 - - - - - - -
27/05:00pm 13.5 SW 15 25 1002.5 - 2.4 - - - - - - -
27/04:30pm 13.0 WSW 17 28 1002.4 - 2.2 - - - - - - -
27/04:00pm 14.2 W 17 27 1002.2 - 2.0 - - - - - - -
27/03:54pm 14.2 W 16 27 1002.1 - 2.0 - - - - - - -
27/03:30pm 13.7 W 18 26 1002.1 - 2.0 - - - - - - -
27/03:01pm 13.4 WSW 15 31 1002.2 - 2.0 - - - - - - -
27/03:00pm 13.5 WSW 14 31 1002.2 - 2.0 - - - - - - -
27/02:31pm 14.1 W 18 28 1002.3 - 2.0 - - - - - - -
27/02:30pm 14.1 W 19 28 1002.3 - 2.0 - - - - - - -
27/02:00pm 13.9 W 17 30 1002.3 - 2.0 - - - - - - -
27/01:52pm 13.6 WSW 15 30 1002.5 - 2.0 - - - - - - -
27/01:30pm 14.4 WSW 15 23 1002.5 - 2.0 - - - - - - -
27/01:00pm 13.7 WSW 16 26 1002.5 - 2.0 - - - - - - -
27/12:52pm 14.3 WSW 15 26 1002.7 - 2.0 - - - - - - -
27/12:30pm 14.8 WSW 13 19 1002.6 - 2.0 - - - - - - -
27/12:00pm 14.7 WSW 17 25 1002.4 - 2.0 - - - - - - -
27/11:30am 14.8 WSW 15 23 1002.0 - 2.0 - - - - - - -
27/11:00am 14.4 SW 14 22 1001.8 - 2.0 - - - - - - -
27/10:30am 14.3 SW 13 20 1001.3 - 2.0 - - - - - - -
27/10:00am 14.3 WNW 16 27 1001.3 - 0.8 - - - - - - -
27/09:51am 15.0 WNW 16 27 1001.3 - 0.6 - - - - - - -
27/09:30am 14.5 W 7 18 1001.6 - 0.4 - - - - - - -
27/09:00am 13.2 WSW 6 11 1001.4 - 25.4 Recent precip. - - - - - -
27/08:30am 14.9 WNW 14 19 1001.6 - 21.6 - - - - - - -
27/08:00am 14.2 WNW 16 20 1001.8 - 21.6 - - - - - - -
27/07:30am 13.8 NW 16 21 1001.6 - 21.6 - - - - - - -
27/07:00am 14.0 WNW 13 18 1001.6 - 21.4 - - - - - - -
27/06:30am 15.3 WNW 15 20 1001.5 - 21.2 - - - - - - -
27/06:00am 15.2 W 18 24 1001.2 - 21.2 - - - - - - -
27/05:30am 14.6 W 12 18 1001.8 - 21.2 - - - - - - -
27/05:00am 14.4 NW 15 18 1001.7 - 21.2 - - - - - - -
27/04:30am 13.6 NW 16 20 1002.1 - 21.2 - - - - - - -
27/04:00am 12.8 NW 16 21 1002.4 - 21.0 - - - - - - -
27/03:30am 12.5 WNW 8 12 1001.7 - 19.8 - - - - - - -
27/03:00am 12.7 W 12 17 1002.7 - 18.6 Rain - - - - - -
27/02:30am 13.2 WNW 11 13 1002.8 - 14.8 - - - - - - -
27/02:00am 13.5 WNW 10 14 1002.8 - 12.6 - - - - - - -
27/01:30am 13.7 WNW 15 19 1003.7 - 11.8 - - - - - - -
27/01:00am 13.7 W 13 17 1004.1 - 11.0 - - - - - - -
27/12:30am 13.8 W 12 16 1003.8 - 10.2 - - - - - - -
27/12:00am 13.8 WSW 7 12 1003.9 - 9.4 Rain - - - - - -
 
Date/Time
WST
Temp
°C
Wind Pressure Rain since
9am
mm
Weather Cloud Vis
km
Sea
Height
m
Swell
Dir  Spd
kts
Gust
kts
hPa Trend Height
m
Period
s
Dir
26/11:30pm 14.1 W 12 18 1004.5 - 8.8 - - - - - - -
26/11:00pm 14.3 W 14 20 1005.6 - 7.8 - - - - - - -
26/10:30pm 13.5 W 10 15 1004.3 - 7.2 - - - - - - -
26/10:00pm 14.0 W 14 21 1006.0 - 7.0 - - - - - - -
26/09:30pm 14.1 W 14 20 1005.3 - 5.4 - - - - - - -
26/09:00pm 14.1 W 13 22 1005.7 - 5.0 Rain - - - - - -
26/08:30pm 13.9 W 15 21 1005.1 - 4.6 - - - - - - -
26/08:01pm 14.2 WSW 16 27 1005.3 - 3.8 - - - - - - -
26/08:00pm 14.4 WSW 15 23 1005.3 - 3.8 - - - - - - -
26/07:50pm 14.4 WSW 20 36 1005.2 - 3.4 - - - - - - -
26/07:43pm 15.5 NNW 21 36 1005.0 - 3.0 - - - - - - -
26/07:42pm 15.8 N 20 36 1004.6 - 2.8 - - - - - - -
26/07:40pm 16.9 N 18 32 1003.8 - 1.8 - - - - - - -
26/07:30pm 16.6 N 16 20 1004.5 - 1.8 - - - - - - -
26/07:00pm 16.6 N 18 23 1004.8 - 1.8 - - - - - - -
26/06:30pm 16.7 N 17 23 1005.2 - 1.8 - - - - - - -
26/06:00pm 16.0 N 19 24 1005.4 - 1.8 Recent precip. - - - - - -
26/05:30pm 15.7 NNW 23 31 1006.2 - 1.8 - - - - - - -
26/05:24pm 15.8 NW 21 31 1006.4 - 1.6 - - - - - - -
26/05:22pm 15.7 NW 18 30 1006.4 - 1.4 - - - - - - -
26/05:00pm 17.0 NNW 16 21 1006.0 - 0.0 - - - - - - -
26/04:31pm 17.4 N 16 27 1006.1 - 0.0 - - - - - - -
26/04:30pm 17.4 N 15 19 1006.1 - 0.0 - - - - - - -
26/04:00pm 17.5 N 15 20 1006.0 - 0.0 - - - - - - -
26/03:30pm 17.8 N 17 21 1006.3 - 0.0 - - - - - - -
26/03:00pm 17.6 N 14 19 1007.0 - 0.0 - - - - - - -
26/02:30pm 17.6 N 15 21 1007.3 - 0.0 - - - - - - -
26/02:00pm 17.5 N 15 19 1007.5 - 0.0 - - - - - - -
26/01:30pm 17.5 N 16 20 1007.8 - 0.0 - - - - - - -
26/01:00pm 17.2 N 17 23 1008.4 - 0.0 - - - - - - -
26/12:30pm 17.1 N 16 20 1008.8 - 0.0 - - - - - - -
26/12:00pm 17.1 N 16 21 1009.6 - 0.0 - - - - - - -
26/11:30am 17.3 N 17 21 1010.1 - 0.0 - - - - - - -
26/11:00am 17.2 N 16 19 1010.8 - 0.0 - - - - - - -
26/10:30am 17.1 N 13 18 1011.2 - 0.0 - - - - - - -
26/10:00am 16.9 N 15 21 1011.3 - 0.0 - - - - - - -
26/09:30am 16.6 N 14 18 1011.7 - 0.0 - - - - - - -
26/09:00am 16.1 N 13 16 1012.1 - 0.0 - - - - - - -
26/08:30am 15.8 N 15 18 1012.3 - 0.0 - - - - - - -
26/08:00am 15.6 NNE 16 19 1012.3 - 0.0 - - - - - - -
26/07:30am 15.6 N 15 18 1012.3 - 0.0 - - - - - - -
26/07:00am 15.7 N 14 18 1012.3 - 0.0 - - - - - - -
26/06:30am 15.8 NNE 14 18 1012.2 - 0.0 - - - - - - -
26/06:00am 15.4 NNE 11 15 1012.1 - 0.0 - - - - - - -
26/05:30am 15.4 NNE 11 16 1012.2 - 0.0 - - - - - - -
26/05:00am 15.2 NNE 12 16 1012.3 - 0.0 - - - - - - -
26/04:30am 15.3 NNE 11 15 1012.8 - 0.0 - - - - - - -
26/04:00am 15.1 NNE 11 14 1012.9 - 0.0 - - - - - - -
26/03:30am 15.1 NE 12 14 1013.3 - 0.0 - - - - - - -
26/03:00am 15.2 NE 11 15 1013.9 - 0.0 - - - - - - -
26/02:30am 15.2 NE 12 15 1014.1 - 0.0 - - - - - - -
26/02:00am 15.1 NE 13 16 1014.6 - 0.0 - - - - - - -
26/01:30am 14.9 NE 11 15 1015.2 - 0.0 - - - - - - -
26/01:00am 14.8 NE 12 16 1015.5 - 0.0 - - - - - - -
26/12:30am 14.0 NE 6 9 1016.2 - 0.0 - - - - - - -
26/12:00am 13.8 ENE 6 9 1016.5 - 0.0 - - - - - - -
 
Date/Time
WST
Temp
°C
Wind Pressure Rain since
9am
mm
Weather Cloud Vis
km
Sea
Height
m
Swell
Dir  Spd
kts
Gust
kts
hPa Trend Height
m
Period
s
Dir
25/11:30pm 13.8 ENE 7 10 1016.7 - 0.0 - - - - - - -
25/11:00pm 13.7 ENE 7 11 1017.3 - 0.0 - - - - - - -
25/10:30pm 13.8 ENE 6 9 1017.9 - 0.0 - - - - - - -
25/10:00pm 13.7 ENE 5 8 1018.2 - 0.0 - - - - - - -
25/09:30pm 13.6 ENE 3 5 1018.7 - 0.0 - - - - - - -
25/09:00pm 13.9 E 3 5 1018.7 - 0.0 - - - - - - -
25/08:30pm 14.3 E 4 6 1018.7 - 0.0 - - - - - - -
25/08:00pm 14.7 ENE 4 7 1018.9 - 0.0 - - - - - - -
25/07:30pm 15.1 ENE 5 7 1019.1 - 0.0 - - - - - - -
25/07:00pm 15.5 ENE 6 10 1018.9 - 0.0 - - - - - - -
25/06:30pm 15.8 ENE 6 9 1018.9 - 0.0 - - - - - - -
25/06:00pm 16.3 ENE 5 8 1018.6 - 0.0 - - - - - - -
25/05:30pm 16.7 ENE 6 8 1018.4 - 0.0 - - - - - - -
25/05:00pm 17.2 NE 11 13 1018.4 - 0.0 - - - - - - -
25/04:30pm 17.9 NE 9 13 1018.8 - 0.0 - - - - - - -
25/04:00pm 18.3 NE 7 10 1018.9 - 0.0 - - - - - - -
25/03:30pm 18.2 NE 8 11 1019.2 - 0.0 - - - - - - -
25/03:00pm 17.9 NNE 9 12 1019.4 - 0.0 - - - - - - -
25/02:30pm 18.9 NE 7 11 1019.8 - 0.0 - - - - - - -
25/02:00pm 18.3 NNE 7 11 1020.5 - 0.0 - - - - - - -
25/01:30pm 18.9 NE 8 11 1021.0 - 0.0 - - - - - - -
25/01:00pm 17.3 NNE 8 10 1021.6 - 0.0 - - - - - - -
25/12:30pm 17.6 NNE 9 13 1021.8 - 0.0 - - - - - - -
25/12:00pm 17.4 NE 10 15 1022.7 - 0.0 - - - - - - -
25/11:30am 16.7 ENE 10 16 1023.5 - 0.0 - - - - - - -
25/11:00am 16.2 NE 12 16 1024.0 - 0.0 - - - - - - -
25/10:30am 15.1 NE 14 20 1024.4 - 0.0 - - - - - - -
25/10:00am 14.3 NE 14 21 1024.7 - 0.0 - - - - - - -
25/09:30am 13.6 ENE 11 18 1024.9 - 0.0 - - - - - - -
25/09:00am 12.5 ENE 10 15 1025.1 - 0.0 - - - - - - -
25/08:30am 11.0 ENE 8 15 1024.9 - 0.0 - - - - - - -
25/08:00am 10.0 ENE 10 16 1024.9 - 0.0 - - - - - - -
25/07:30am 9.4 ENE 11 19 1024.7 - 0.0 - - - - - - -
25/07:00am 9.0 ENE 8 14 1024.5 - 0.0 - - - - - - -
25/06:30am 8.7 ENE 7 11 1024.2 - 0.0 - - - - - - -
25/06:00am 8.2 E 5 9 1023.9 - 0.0 - - - - - - -
25/05:30am 8.4 E 4 6 1023.9 - 0.0 - - - - - - -
25/05:00am 8.6 E 5 8 1023.8 - 0.0 - - - - - - -
25/04:30am 8.7 E 4 7 1023.5 - 0.0 - - - - - - -
25/04:00am 8.9 E 4 8 1023.7 - 0.0 - - - - - - -
25/03:30am 8.9 E 5 7 1023.7 - 0.0 - - - - - - -
25/03:00am 9.2 E 7 10 1023.7 - 0.0 - - - - - - -
25/02:30am 9.5 E 8 16 1024.1 - 0.0 - - - - - - -
25/02:00am 9.5 E 9 14 1024.5 - 0.0 - - - - - - -
25/01:30am 9.4 E 8 12 1024.6 - 0.0 - - - - - - -
25/01:00am 8.7 ESE 5 8 1024.7 - 0.0 - - - - - - -
25/12:30am 9.0 ESE 5 6 1024.8 - 0.0 - - - - - - -
25/12:00am 9.4 ESE 4 6 1025.1 - 0.0 - - - - - - -
 
Date/Time
WST
Temp
°C
Wind Pressure Rain since
9am
mm
Weather Cloud Vis
km
Sea
Height
m
Swell
Dir  Spd
kts
Gust
kts
hPa Trend Height
m
Period
s
Dir
24/11:30pm 9.5 SE 4 6 1025.4 - 0.0 - - - - - - -

Other Formats:

Comma delimited format used in spreadsheet applications
http://www.bom.gov.au/fwo/IDW60701/IDW60701.94605.axf

JavaScript Object Notation format (JSON) in row-major order
http://www.bom.gov.au/fwo/IDW60701/IDW60701.94605.json